sensor_id;sensor_type;location;lat;lon;timestamp;temperature;humidity
53286;DHT22;39171;45.550;12.074;2022-12-15T00:01:03;16.20;56.10
53286;DHT22;39171;45.550;12.074;2022-12-15T00:07:23;16.20;56.30
53286;DHT22;39171;45.550;12.074;2022-12-15T00:13:43;16.20;56.40
53286;DHT22;39171;45.550;12.074;2022-12-15T00:20:03;16.10;56.60
53286;DHT22;39171;45.550;12.074;2022-12-15T00:26:24;16.10;56.50
53286;DHT22;39171;45.550;12.074;2022-12-15T00:32:44;16.10;56.70
53286;DHT22;39171;45.550;12.074;2022-12-15T00:39:03;16.00;56.70
53286;DHT22;39171;45.550;12.074;2022-12-15T00:45:05;16.00;57.00
53286;DHT22;39171;45.550;12.074;2022-12-15T00:51:07;16.00;57.10
53286;DHT22;39171;45.550;12.074;2022-12-15T00:57:08;15.90;57.30
53286;DHT22;39171;45.550;12.074;2022-12-15T01:03:28;15.90;57.30
53286;DHT22;39171;45.550;12.074;2022-12-15T01:09:48;15.90;57.30
53286;DHT22;39171;45.550;12.074;2022-12-15T01:16:10;15.80;57.30
53286;DHT22;39171;45.550;12.074;2022-12-15T01:22:30;15.70;57.30
53286;DHT22;39171;45.550;12.074;2022-12-15T01:28:32;15.70;57.30
53286;DHT22;39171;45.550;12.074;2022-12-15T01:34:34;15.70;57.50
53286;DHT22;39171;45.550;12.074;2022-12-15T01:40:36;15.70;57.80
53286;DHT22;39171;45.550;12.074;2022-12-15T01:46:48;15.70;57.90
53286;DHT22;39171;45.550;12.074;2022-12-15T01:52:53;15.60;57.80
53286;DHT22;39171;45.550;12.074;2022-12-15T01:58:58;15.60;57.80
53286;DHT22;39171;45.550;12.074;2022-12-15T02:05:03;15.60;57.90
53286;DHT22;39171;45.550;12.074;2022-12-15T02:36:37;15.30;58.50
53286;DHT22;39171;45.550;12.074;2022-12-15T02:42:45;15.30;58.50
53286;DHT22;39171;45.550;12.074;2022-12-15T02:49:02;15.20;58.60
53286;DHT22;39171;45.550;12.074;2022-12-15T03:01:21;15.20;58.60
53286;DHT22;39171;45.550;12.074;2022-12-15T03:07:24;15.20;58.70
53286;DHT22;39171;45.550;12.074;2022-12-15T03:13:28;15.10;58.80
53286;DHT22;39171;45.550;12.074;2022-12-15T03:19:30;15.10;58.90
53286;DHT22;39171;45.550;12.074;2022-12-15T03:25:31;15.00;58.90
53286;DHT22;39171;45.550;12.074;2022-12-15T03:31:33;15.00;59.00
53286;DHT22;39171;45.550;12.074;2022-12-15T03:37:34;14.90;59.10
53286;DHT22;39171;45.550;12.074;2022-12-15T03:43:36;14.90;59.20
53286;DHT22;39171;45.550;12.074;2022-12-15T03:49:37;14.90;59.60
53286;DHT22;39171;45.550;12.074;2022-12-15T03:55:39;14.80;59.90
53286;DHT22;39171;45.550;12.074;2022-12-15T04:01:45;15.00;59.80
53286;DHT22;39171;45.550;12.074;2022-12-15T04:07:48;15.10;59.40
53286;DHT22;39171;45.550;12.074;2022-12-15T04:13:49;15.40;59.00
53286;DHT22;39171;45.550;12.074;2022-12-15T04:19:51;15.60;58.70
53286;DHT22;39171;45.550;12.074;2022-12-15T04:26:11;15.80;58.40
53286;DHT22;39171;45.550;12.074;2022-12-15T04:32:31;16.00;58.00
53286;DHT22;39171;45.550;12.074;2022-12-15T04:38:51;16.20;57.50
53286;DHT22;39171;45.550;12.074;2022-12-15T04:45:11;16.20;57.20
53286;DHT22;39171;45.550;12.074;2022-12-15T04:51:32;16.40;56.70
53286;DHT22;39171;45.550;12.074;2022-12-15T04:57:55;16.50;56.40
53286;DHT22;39171;45.550;12.074;2022-12-15T05:04:15;16.60;55.90
53286;DHT22;39171;45.550;12.074;2022-12-15T05:10:35;16.60;55.90
53286;DHT22;39171;45.550;12.074;2022-12-15T05:16:54;16.70;55.50
53286;DHT22;39171;45.550;12.074;2022-12-15T05:23:14;16.70;55.40
53286;DHT22;39171;45.550;12.074;2022-12-15T05:29:34;16.80;55.20
53286;DHT22;39171;45.550;12.074;2022-12-15T05:35:57;16.80;55.00
53286;DHT22;39171;45.550;12.074;2022-12-15T05:41:59;16.90;54.80
53286;DHT22;39171;45.550;12.074;2022-12-15T05:48:00;16.90;54.70
53286;DHT22;39171;45.550;12.074;2022-12-15T05:54:02;16.90;54.50
53286;DHT22;39171;45.550;12.074;2022-12-15T06:00:04;17.00;54.50
53286;DHT22;39171;45.550;12.074;2022-12-15T06:06:13;17.00;54.40
53286;DHT22;39171;45.550;12.074;2022-12-15T06:12:14;17.00;54.30
53286;DHT22;39171;45.550;12.074;2022-12-15T06:18:18;17.10;54.20
53286;DHT22;39171;45.550;12.074;2022-12-15T06:24:20;17.10;54.10
53286;DHT22;39171;45.550;12.074;2022-12-15T06:30:22;17.10;53.90
53286;DHT22;39171;45.550;12.074;2022-12-15T06:36:23;17.10;53.80
53286;DHT22;39171;45.550;12.074;2022-12-15T06:42:25;17.20;53.90
53286;DHT22;39171;45.550;12.074;2022-12-15T06:48:26;17.20;53.80
53286;DHT22;39171;45.550;12.074;2022-12-15T06:54:27;17.20;53.80
53286;DHT22;39171;45.550;12.074;2022-12-15T07:00:29;17.20;53.70
53286;DHT22;39171;45.550;12.074;2022-12-15T07:06:33;17.30;53.60
53286;DHT22;39171;45.550;12.074;2022-12-15T07:12:36;17.30;53.50
53286;DHT22;39171;45.550;12.074;2022-12-15T07:18:37;17.30;53.40
53286;DHT22;39171;45.550;12.074;2022-12-15T07:24:40;17.30;53.20
53286;DHT22;39171;45.550;12.074;2022-12-15T07:30:42;17.30;53.10
53286;DHT22;39171;45.550;12.074;2022-12-15T07:36:44;17.30;53.10
53286;DHT22;39171;45.550;12.074;2022-12-15T07:42:46;17.30;53.10
53286;DHT22;39171;45.550;12.074;2022-12-15T07:48:48;17.30;53.20
53286;DHT22;39171;45.550;12.074;2022-12-15T07:54:50;17.40;53.30
53286;DHT22;39171;45.550;12.074;2022-12-15T08:00:52;17.40;53.30
53286;DHT22;39171;45.550;12.074;2022-12-15T08:06:54;17.40;53.10
53286;DHT22;39171;45.550;12.074;2022-12-15T08:12:56;17.50;52.90
53286;DHT22;39171;45.550;12.074;2022-12-15T08:18:57;17.50;52.70
53286;DHT22;39171;45.550;12.074;2022-12-15T08:24:59;17.50;52.70
53286;DHT22;39171;45.550;12.074;2022-12-15T08:31:05;17.50;52.70
53286;DHT22;39171;45.550;12.074;2022-12-15T08:37:10;17.50;52.60
53286;DHT22;39171;45.550;12.074;2022-12-15T08:43:14;17.60;52.70
53286;DHT22;39171;45.550;12.074;2022-12-15T08:49:16;17.60;52.60
53286;DHT22;39171;45.550;12.074;2022-12-15T08:55:20;17.60;52.30
53286;DHT22;39171;45.550;12.074;2022-12-15T09:01:25;17.60;51.90
53286;DHT22;39171;45.550;12.074;2022-12-15T09:07:28;17.60;52.30
53286;DHT22;39171;45.550;12.074;2022-12-15T09:13:30;17.70;52.40
53286;DHT22;39171;45.550;12.074;2022-12-15T09:19:31;17.70;52.40
53286;DHT22;39171;45.550;12.074;2022-12-15T09:25:33;17.70;52.20
53286;DHT22;39171;45.550;12.074;2022-12-15T09:31:36;17.80;52.00
53286;DHT22;39171;45.550;12.074;2022-12-15T09:37:38;17.80;52.00
53286;DHT22;39171;45.550;12.074;2022-12-15T09:43:53;17.80;51.90
53286;DHT22;39171;45.550;12.074;2022-12-15T09:49:59;17.80;51.90
53286;DHT22;39171;45.550;12.074;2022-12-15T09:56:08;17.80;51.70
53286;DHT22;39171;45.550;12.074;2022-12-15T10:08:23;17.90;51.60
53286;DHT22;39171;45.550;12.074;2022-12-15T10:20:43;18.00;51.50
53286;DHT22;39171;45.550;12.074;2022-12-15T10:33:00;18.10;51.40
53286;DHT22;39171;45.550;12.074;2022-12-15T10:39:03;18.10;51.20
53286;DHT22;39171;45.550;12.074;2022-12-15T10:45:42;18.10;51.20
53286;DHT22;39171;45.550;12.074;2022-12-15T10:51:59;18.20;51.10
53286;DHT22;39171;45.550;12.074;2022-12-15T10:58:18;18.20;51.00
53286;DHT22;39171;45.550;12.074;2022-12-15T11:04:29;18.20;51.10
53286;DHT22;39171;45.550;12.074;2022-12-15T11:10:34;18.20;51.10
53286;DHT22;39171;45.550;12.074;2022-12-15T11:16:56;18.20;51.10
53286;DHT22;39171;45.550;12.074;2022-12-15T11:23:20;18.20;51.10
53286;DHT22;39171;45.550;12.074;2022-12-15T11:35:49;18.30;50.80
53286;DHT22;39171;45.550;12.074;2022-12-15T11:42:22;18.30;50.80
53286;DHT22;39171;45.550;12.074;2022-12-15T11:54:53;18.30;50.60
53286;DHT22;39171;45.550;12.074;2022-12-15T12:01:09;18.30;50.50
53286;DHT22;39171;45.550;12.074;2022-12-15T12:07:36;18.30;50.50
53286;DHT22;39171;45.550;12.074;2022-12-15T12:14:03;18.30;50.50
53286;DHT22;39171;45.550;12.074;2022-12-15T12:20:21;18.30;50.50
53286;DHT22;39171;45.550;12.074;2022-12-15T12:26:50;18.30;50.50
53286;DHT22;39171;45.550;12.074;2022-12-15T12:39:03;18.20;50.60
53286;DHT22;39171;45.550;12.074;2022-12-15T12:45:12;18.20;51.00
53286;DHT22;39171;45.550;12.074;2022-12-15T12:51:35;18.00;51.00
53286;DHT22;39171;45.550;12.074;2022-12-15T12:57:44;18.00;51.30
53286;DHT22;39171;45.550;12.074;2022-12-15T13:04:12;18.10;51.40
53286;DHT22;39171;45.550;12.074;2022-12-15T13:10:19;18.10;51.30
53286;DHT22;39171;45.550;12.074;2022-12-15T13:16:24;18.20;51.30
53286;DHT22;39171;45.550;12.074;2022-12-15T13:22:34;18.20;51.00
53286;DHT22;39171;45.550;12.074;2022-12-15T13:34:42;18.30;51.00
53286;DHT22;39171;45.550;12.074;2022-12-15T13:40:51;18.30;50.90
53286;DHT22;39171;45.550;12.074;2022-12-15T13:47:11;18.30;50.80
53286;DHT22;39171;45.550;12.074;2022-12-15T13:53:17;18.40;50.90
53286;DHT22;39171;45.550;12.074;2022-12-15T14:05:55;18.40;50.60
53286;DHT22;39171;45.550;12.074;2022-12-15T14:11:57;18.50;50.60
53286;DHT22;39171;45.550;12.074;2022-12-15T14:18:00;18.50;50.60
53286;DHT22;39171;45.550;12.074;2022-12-15T14:24:30;18.50;50.50
53286;DHT22;39171;45.550;12.074;2022-12-15T14:30:32;18.50;50.20
53286;DHT22;39171;45.550;12.074;2022-12-15T14:36:35;18.50;50.30
53286;DHT22;39171;45.550;12.074;2022-12-15T14:42:37;18.40;50.60
53286;DHT22;39171;45.550;12.074;2022-12-15T14:48:44;18.40;50.60
53286;DHT22;39171;45.550;12.074;2022-12-15T14:54:56;18.30;50.80
53286;DHT22;39171;45.550;12.074;2022-12-15T15:01:00;18.20;51.20
53286;DHT22;39171;45.550;12.074;2022-12-15T15:07:14;18.10;51.30
53286;DHT22;39171;45.550;12.074;2022-12-15T15:13:18;18.00;51.60
53286;DHT22;39171;45.550;12.074;2022-12-15T15:19:21;18.00;51.80
53286;DHT22;39171;45.550;12.074;2022-12-15T15:31:37;18.00;52.00
53286;DHT22;39171;45.550;12.074;2022-12-15T15:37:39;18.00;52.20
53286;DHT22;39171;45.550;12.074;2022-12-15T15:43:41;18.00;52.20
53286;DHT22;39171;45.550;12.074;2022-12-15T15:49:51;18.00;52.20
53286;DHT22;39171;45.550;12.074;2022-12-15T15:55:54;18.10;52.20
53286;DHT22;39171;45.550;12.074;2022-12-15T16:01:56;18.20;52.10
53286;DHT22;39171;45.550;12.074;2022-12-15T16:08:02;18.20;52.00
53286;DHT22;39171;45.550;12.074;2022-12-15T16:14:10;18.30;52.00
53286;DHT22;39171;45.550;12.074;2022-12-15T16:20:17;18.30;52.00
53286;DHT22;39171;45.550;12.074;2022-12-15T16:26:30;18.40;52.00
53286;DHT22;39171;45.550;12.074;2022-12-15T16:32:32;18.40;51.90
53286;DHT22;39171;45.550;12.074;2022-12-15T16:38:34;18.50;52.00
53286;DHT22;39171;45.550;12.074;2022-12-15T16:44:38;18.50;52.00
53286;DHT22;39171;45.550;12.074;2022-12-15T16:50:46;18.50;51.90
53286;DHT22;39171;45.550;12.074;2022-12-15T16:56:50;18.50;51.70
53286;DHT22;39171;45.550;12.074;2022-12-15T17:02:53;18.50;51.70
53286;DHT22;39171;45.550;12.074;2022-12-15T17:08:55;18.50;51.70
53286;DHT22;39171;45.550;12.074;2022-12-15T17:15:00;18.50;51.60
53286;DHT22;39171;45.550;12.074;2022-12-15T17:21:11;18.50;51.80
53286;DHT22;39171;45.550;12.074;2022-12-15T17:27:24;18.50;51.90
53286;DHT22;39171;45.550;12.074;2022-12-15T17:33:33;18.50;52.00
53286;DHT22;39171;45.550;12.074;2022-12-15T17:39:36;18.40;51.90
53286;DHT22;39171;45.550;12.074;2022-12-15T17:45:37;18.40;52.00
53286;DHT22;39171;45.550;12.074;2022-12-15T17:51:42;18.30;52.20
53286;DHT22;39171;45.550;12.074;2022-12-15T17:57:49;18.20;52.30
53286;DHT22;39171;45.550;12.074;2022-12-15T18:03:51;18.10;52.60
53286;DHT22;39171;45.550;12.074;2022-12-15T18:09:52;18.00;53.00
53286;DHT22;39171;45.550;12.074;2022-12-15T18:15:55;17.80;53.20
53286;DHT22;39171;45.550;12.074;2022-12-15T18:21:56;17.80;53.30
53286;DHT22;39171;45.550;12.074;2022-12-15T18:27:58;17.70;53.50
53286;DHT22;39171;45.550;12.074;2022-12-15T18:34:14;17.70;53.50
53286;DHT22;39171;45.550;12.074;2022-12-15T18:40:26;17.50;53.80
53286;DHT22;39171;45.550;12.074;2022-12-15T18:46:28;17.50;54.20
53286;DHT22;39171;45.550;12.074;2022-12-15T18:52:29;17.40;54.40
53286;DHT22;39171;45.550;12.074;2022-12-15T18:58:33;17.40;54.50
53286;DHT22;39171;45.550;12.074;2022-12-15T19:04:35;17.30;54.50
53286;DHT22;39171;45.550;12.074;2022-12-15T19:10:46;17.30;54.80
53286;DHT22;39171;45.550;12.074;2022-12-15T19:16:48;17.30;54.90
53286;DHT22;39171;45.550;12.074;2022-12-15T19:23:08;17.20;55.00
53286;DHT22;39171;45.550;12.074;2022-12-15T19:29:18;17.20;55.10
53286;DHT22;39171;45.550;12.074;2022-12-15T19:35:20;17.10;55.30
53286;DHT22;39171;45.550;12.074;2022-12-15T19:41:21;17.10;55.50
53286;DHT22;39171;45.550;12.074;2022-12-15T19:47:25;17.00;55.60
53286;DHT22;39171;45.550;12.074;2022-12-15T19:53:27;17.00;55.70
53286;DHT22;39171;45.550;12.074;2022-12-15T19:59:29;16.90;55.80
53286;DHT22;39171;45.550;12.074;2022-12-15T20:05:36;16.90;56.00
53286;DHT22;39171;45.550;12.074;2022-12-15T20:11:38;16.90;56.20
53286;DHT22;39171;45.550;12.074;2022-12-15T20:17:39;16.80;56.00
53286;DHT22;39171;45.550;12.074;2022-12-15T20:24:05;16.80;56.40
53286;DHT22;39171;45.550;12.074;2022-12-15T20:30:20;16.70;56.60
53286;DHT22;39171;45.550;12.074;2022-12-15T20:36:27;16.70;56.60
53286;DHT22;39171;45.550;12.074;2022-12-15T20:42:29;16.70;56.70
53286;DHT22;39171;45.550;12.074;2022-12-15T20:48:32;16.70;56.90
53286;DHT22;39171;45.550;12.074;2022-12-15T20:54:35;16.70;57.10
53286;DHT22;39171;45.550;12.074;2022-12-15T21:00:36;16.60;57.10
53286;DHT22;39171;45.550;12.074;2022-12-15T21:06:40;16.60;57.30
53286;DHT22;39171;45.550;12.074;2022-12-15T21:12:47;16.60;57.50
53286;DHT22;39171;45.550;12.074;2022-12-15T21:18:49;16.60;57.50
53286;DHT22;39171;45.550;12.074;2022-12-15T21:24:53;16.50;57.50
53286;DHT22;39171;45.550;12.074;2022-12-15T21:30:55;16.50;57.90
53286;DHT22;39171;45.550;12.074;2022-12-15T21:36:57;16.40;57.80
53286;DHT22;39171;45.550;12.074;2022-12-15T21:42:58;16.40;58.00
53286;DHT22;39171;45.550;12.074;2022-12-15T21:49:02;16.40;58.00
53286;DHT22;39171;45.550;12.074;2022-12-15T21:55:20;16.40;58.10
53286;DHT22;39171;45.550;12.074;2022-12-15T22:01:26;16.40;58.30
53286;DHT22;39171;45.550;12.074;2022-12-15T22:07:28;16.40;58.30
53286;DHT22;39171;45.550;12.074;2022-12-15T22:13:30;16.40;58.30
53286;DHT22;39171;45.550;12.074;2022-12-15T22:19:32;16.40;58.30
53286;DHT22;39171;45.550;12.074;2022-12-15T22:25:37;16.30;58.40
53286;DHT22;39171;45.550;12.074;2022-12-15T22:31:39;16.30;58.50
53286;DHT22;39171;45.550;12.074;2022-12-15T22:37:41;16.30;58.60
53286;DHT22;39171;45.550;12.074;2022-12-15T22:43:52;16.30;58.60
53286;DHT22;39171;45.550;12.074;2022-12-15T22:49:54;16.20;58.80
53286;DHT22;39171;45.550;12.074;2022-12-15T22:55:56;16.20;59.10
53286;DHT22;39171;45.550;12.074;2022-12-15T23:02:00;16.20;59.00
53286;DHT22;39171;45.550;12.074;2022-12-15T23:08:03;16.20;59.10
53286;DHT22;39171;45.550;12.074;2022-12-15T23:14:15;16.20;59.10
53286;DHT22;39171;45.550;12.074;2022-12-15T23:20:17;16.20;59.30
53286;DHT22;39171;45.550;12.074;2022-12-15T23:26:20;16.20;59.50
53286;DHT22;39171;45.550;12.074;2022-12-15T23:32:23;16.10;59.60
53286;DHT22;39171;45.550;12.074;2022-12-15T23:38:25;16.10;59.70
53286;DHT22;39171;45.550;12.074;2022-12-15T23:44:28;16.10;59.70
53286;DHT22;39171;45.550;12.074;2022-12-15T23:50:30;16.00;59.80
53286;DHT22;39171;45.550;12.074;2022-12-15T23:56:32;16.00;59.90
